sensor_id;sensor_type;location;lat;lon;timestamp;temperature;humidity
30097;DHT22;16915;51.466;3.610;2023-04-04T00:00:01;3.50;99.90
30097;DHT22;16915;51.466;3.610;2023-04-04T00:02:27;3.50;99.90
30097;DHT22;16915;51.466;3.610;2023-04-04T00:04:53;3.50;99.90
30097;DHT22;16915;51.466;3.610;2023-04-04T00:07:18;3.40;99.90
30097;DHT22;16915;51.466;3.610;2023-04-04T00:09:44;3.40;99.90
30097;DHT22;16915;51.466;3.610;2023-04-04T00:12:10;3.50;99.90
30097;DHT22;16915;51.466;3.610;2023-04-04T00:14:35;3.40;99.90
30097;DHT22;16915;51.466;3.610;2023-04-04T00:17:01;3.30;99.90
30097;DHT22;16915;51.466;3.610;2023-04-04T00:19:26;3.30;99.90
30097;DHT22;16915;51.466;3.610;2023-04-04T00:21:52;3.30;99.90
30097;DHT22;16915;51.466;3.610;2023-04-04T00:24:17;3.20;99.90
30097;DHT22;16915;51.466;3.610;2023-04-04T00:26:43;3.10;99.90
30097;DHT22;16915;51.466;3.610;2023-04-04T00:29:08;3.10;99.90
30097;DHT22;16915;51.466;3.610;2023-04-04T00:31:34;3.00;99.90
30097;DHT22;16915;51.466;3.610;2023-04-04T00:34:00;3.00;99.90
30097;DHT22;16915;51.466;3.610;2023-04-04T00:36:25;3.00;99.90
30097;DHT22;16915;51.466;3.610;2023-04-04T00:38:51;2.90;99.90
30097;DHT22;16915;51.466;3.610;2023-04-04T00:41:17;2.80;99.90
30097;DHT22;16915;51.466;3.610;2023-04-04T00:43:43;2.70;99.90
30097;DHT22;16915;51.466;3.610;2023-04-04T00:46:09;2.60;99.90
30097;DHT22;16915;51.466;3.610;2023-04-04T00:48:40;2.60;99.90
30097;DHT22;16915;51.466;3.610;2023-04-04T00:51:06;2.60;99.90
30097;DHT22;16915;51.466;3.610;2023-04-04T00:53:32;2.50;99.90
30097;DHT22;16915;51.466;3.610;2023-04-04T00:55:58;2.50;99.90
30097;DHT22;16915;51.466;3.610;2023-04-04T00:58:24;2.50;99.90
30097;DHT22;16915;51.466;3.610;2023-04-04T01:00:50;2.50;99.90
30097;DHT22;16915;51.466;3.610;2023-04-04T01:03:17;2.40;99.90
30097;DHT22;16915;51.466;3.610;2023-04-04T01:05:43;2.40;99.90
30097;DHT22;16915;51.466;3.610;2023-04-04T01:08:09;2.40;99.90
30097;DHT22;16915;51.466;3.610;2023-04-04T01:10:36;2.30;99.90
30097;DHT22;16915;51.466;3.610;2023-04-04T01:13:02;2.20;99.90
30097;DHT22;16915;51.466;3.610;2023-04-04T01:15:28;2.20;99.90
30097;DHT22;16915;51.466;3.610;2023-04-04T01:17:57;2.20;99.90
30097;DHT22;16915;51.466;3.610;2023-04-04T01:20:28;2.20;99.90
30097;DHT22;16915;51.466;3.610;2023-04-04T01:22:55;2.10;99.90
30097;DHT22;16915;51.466;3.610;2023-04-04T01:25:29;2.00;99.90
30097;DHT22;16915;51.466;3.610;2023-04-04T01:27:57;1.90;99.90
30097;DHT22;16915;51.466;3.610;2023-04-04T01:30:23;1.90;99.90
30097;DHT22;16915;51.466;3.610;2023-04-04T01:32:58;1.80;99.90
30097;DHT22;16915;51.466;3.610;2023-04-04T01:38:11;1.80;99.90
30097;DHT22;16915;51.466;3.610;2023-04-04T01:40:40;1.80;99.90
30097;DHT22;16915;51.466;3.610;2023-04-04T01:43:10;1.80;99.90
30097;DHT22;16915;51.466;3.610;2023-04-04T01:45:36;1.90;99.90
30097;DHT22;16915;51.466;3.610;2023-04-04T01:48:02;1.90;99.90
30097;DHT22;16915;51.466;3.610;2023-04-04T01:50:27;2.00;99.90
30097;DHT22;16915;51.466;3.610;2023-04-04T01:52:53;2.00;99.90
30097;DHT22;16915;51.466;3.610;2023-04-04T01:55:18;2.00;99.90
30097;DHT22;16915;51.466;3.610;2023-04-04T01:57:44;2.00;99.90
30097;DHT22;16915;51.466;3.610;2023-04-04T02:00:10;2.00;99.90
30097;DHT22;16915;51.466;3.610;2023-04-04T02:02:36;1.90;99.90
30097;DHT22;16915;51.466;3.610;2023-04-04T02:05:02;1.90;99.90
30097;DHT22;16915;51.466;3.610;2023-04-04T02:07:28;1.90;99.90
30097;DHT22;16915;51.466;3.610;2023-04-04T02:09:54;1.80;99.90
30097;DHT22;16915;51.466;3.610;2023-04-04T02:12:19;1.80;99.90
30097;DHT22;16915;51.466;3.610;2023-04-04T02:14:46;1.70;99.90
30097;DHT22;16915;51.466;3.610;2023-04-04T02:17:12;1.60;99.90
30097;DHT22;16915;51.466;3.610;2023-04-04T02:19:38;1.70;99.90
30097;DHT22;16915;51.466;3.610;2023-04-04T02:22:03;1.70;99.90
30097;DHT22;16915;51.466;3.610;2023-04-04T02:24:29;1.70;99.90
30097;DHT22;16915;51.466;3.610;2023-04-04T02:26:54;1.70;99.90
30097;DHT22;16915;51.466;3.610;2023-04-04T02:29:20;1.60;99.90
30097;DHT22;16915;51.466;3.610;2023-04-04T02:31:46;1.60;99.90
30097;DHT22;16915;51.466;3.610;2023-04-04T02:34:12;1.50;99.90
30097;DHT22;16915;51.466;3.610;2023-04-04T02:36:37;1.50;99.90
30097;DHT22;16915;51.466;3.610;2023-04-04T02:39:03;1.40;99.90
30097;DHT22;16915;51.466;3.610;2023-04-04T02:41:30;1.30;99.90
30097;DHT22;16915;51.466;3.610;2023-04-04T02:43:55;1.30;99.90
30097;DHT22;16915;51.466;3.610;2023-04-04T02:46:21;1.30;99.90
30097;DHT22;16915;51.466;3.610;2023-04-04T02:48:47;1.30;99.90
30097;DHT22;16915;51.466;3.610;2023-04-04T02:51:12;1.30;99.90
30097;DHT22;16915;51.466;3.610;2023-04-04T02:53:38;1.30;99.90
30097;DHT22;16915;51.466;3.610;2023-04-04T02:56:04;1.30;99.90
30097;DHT22;16915;51.466;3.610;2023-04-04T02:58:33;1.30;99.90
30097;DHT22;16915;51.466;3.610;2023-04-04T03:00:59;1.30;99.90
30097;DHT22;16915;51.466;3.610;2023-04-04T03:03:25;1.30;99.90
30097;DHT22;16915;51.466;3.610;2023-04-04T03:05:51;1.30;99.90
30097;DHT22;16915;51.466;3.610;2023-04-04T03:08:17;1.30;99.90
30097;DHT22;16915;51.466;3.610;2023-04-04T03:10:44;1.30;99.90
30097;DHT22;16915;51.466;3.610;2023-04-04T03:13:10;1.30;99.90
30097;DHT22;16915;51.466;3.610;2023-04-04T03:15:35;1.30;99.90
30097;DHT22;16915;51.466;3.610;2023-04-04T03:18:01;1.30;99.90
30097;DHT22;16915;51.466;3.610;2023-04-04T03:20:27;1.30;99.90
30097;DHT22;16915;51.466;3.610;2023-04-04T03:22:53;1.20;99.90
30097;DHT22;16915;51.466;3.610;2023-04-04T03:25:18;1.20;99.90
30097;DHT22;16915;51.466;3.610;2023-04-04T03:27:44;1.20;99.90
30097;DHT22;16915;51.466;3.610;2023-04-04T03:30:10;1.20;99.90
30097;DHT22;16915;51.466;3.610;2023-04-04T03:32:36;1.20;99.90
30097;DHT22;16915;51.466;3.610;2023-04-04T03:35:02;1.20;99.90
30097;DHT22;16915;51.466;3.610;2023-04-04T03:37:29;1.10;99.90
30097;DHT22;16915;51.466;3.610;2023-04-04T03:39:54;1.10;99.90
30097;DHT22;16915;51.466;3.610;2023-04-04T03:42:20;1.10;99.90
30097;DHT22;16915;51.466;3.610;2023-04-04T03:44:46;1.00;99.90
30097;DHT22;16915;51.466;3.610;2023-04-04T03:47:13;1.00;99.90
30097;DHT22;16915;51.466;3.610;2023-04-04T03:49:38;1.00;99.90
30097;DHT22;16915;51.466;3.610;2023-04-04T03:52:04;0.90;99.90
30097;DHT22;16915;51.466;3.610;2023-04-04T03:54:30;0.90;99.90
30097;DHT22;16915;51.466;3.610;2023-04-04T03:56:56;0.80;99.90
30097;DHT22;16915;51.466;3.610;2023-04-04T03:59:22;0.80;99.90
30097;DHT22;16915;51.466;3.610;2023-04-04T04:01:48;0.70;99.90
30097;DHT22;16915;51.466;3.610;2023-04-04T04:04:13;0.70;99.90
30097;DHT22;16915;51.466;3.610;2023-04-04T04:06:39;0.80;99.90
30097;DHT22;16915;51.466;3.610;2023-04-04T04:09:05;0.80;99.90
30097;DHT22;16915;51.466;3.610;2023-04-04T04:11:30;0.80;99.90
30097;DHT22;16915;51.466;3.610;2023-04-04T04:13:56;0.80;99.90
30097;DHT22;16915;51.466;3.610;2023-04-04T04:16:21;0.80;99.90
30097;DHT22;16915;51.466;3.610;2023-04-04T04:18:47;0.80;99.90
30097;DHT22;16915;51.466;3.610;2023-04-04T04:21:13;0.70;99.90
30097;DHT22;16915;51.466;3.610;2023-04-04T04:23:39;0.70;99.90
30097;DHT22;16915;51.466;3.610;2023-04-04T04:26:04;0.70;99.90
30097;DHT22;16915;51.466;3.610;2023-04-04T04:28:31;0.60;99.90
30097;DHT22;16915;51.466;3.610;2023-04-04T04:31:05;0.50;99.90
30097;DHT22;16915;51.466;3.610;2023-04-04T04:33:32;0.50;99.90
30097;DHT22;16915;51.466;3.610;2023-04-04T04:36:04;0.50;99.90
30097;DHT22;16915;51.466;3.610;2023-04-04T04:38:30;0.60;99.90
30097;DHT22;16915;51.466;3.610;2023-04-04T04:40:55;0.50;99.90
30097;DHT22;16915;51.466;3.610;2023-04-04T04:43:22;0.50;99.90
30097;DHT22;16915;51.466;3.610;2023-04-04T04:45:47;0.50;99.90
30097;DHT22;16915;51.466;3.610;2023-04-04T04:48:13;0.40;99.90
30097;DHT22;16915;51.466;3.610;2023-04-04T04:50:45;0.50;99.90
30097;DHT22;16915;51.466;3.610;2023-04-04T04:53:11;0.40;99.90
30097;DHT22;16915;51.466;3.610;2023-04-04T04:55:37;0.40;99.90
30097;DHT22;16915;51.466;3.610;2023-04-04T04:58:03;0.50;99.90
30097;DHT22;16915;51.466;3.610;2023-04-04T05:00:29;0.50;99.90
30097;DHT22;16915;51.466;3.610;2023-04-04T05:02:55;0.50;99.90
30097;DHT22;16915;51.466;3.610;2023-04-04T05:05:21;0.60;99.90
30097;DHT22;16915;51.466;3.610;2023-04-04T05:07:47;0.60;99.90
30097;DHT22;16915;51.466;3.610;2023-04-04T05:10:13;0.60;99.90
30097;DHT22;16915;51.466;3.610;2023-04-04T05:12:44;0.60;99.90
30097;DHT22;16915;51.466;3.610;2023-04-04T05:15:11;0.50;99.90
30097;DHT22;16915;51.466;3.610;2023-04-04T05:17:37;0.50;99.90
30097;DHT22;16915;51.466;3.610;2023-04-04T05:20:04;0.50;99.90
30097;DHT22;16915;51.466;3.610;2023-04-04T05:22:30;0.50;99.90
30097;DHT22;16915;51.466;3.610;2023-04-04T05:24:55;0.50;99.90
30097;DHT22;16915;51.466;3.610;2023-04-04T05:27:21;0.50;99.90
30097;DHT22;16915;51.466;3.610;2023-04-04T05:29:47;0.50;99.90
30097;DHT22;16915;51.466;3.610;2023-04-04T05:32:13;0.50;99.90
30097;DHT22;16915;51.466;3.610;2023-04-04T05:34:39;0.40;99.90
30097;DHT22;16915;51.466;3.610;2023-04-04T05:37:04;0.40;99.90
30097;DHT22;16915;51.466;3.610;2023-04-04T05:39:30;0.40;99.90
30097;DHT22;16915;51.466;3.610;2023-04-04T05:41:56;0.40;99.90
30097;DHT22;16915;51.466;3.610;2023-04-04T05:44:21;0.50;99.90
30097;DHT22;16915;51.466;3.610;2023-04-04T05:46:47;0.50;99.90
30097;DHT22;16915;51.466;3.610;2023-04-04T05:49:12;0.60;99.90
30097;DHT22;16915;51.466;3.610;2023-04-04T05:51:38;0.60;99.90
30097;DHT22;16915;51.466;3.610;2023-04-04T05:54:03;0.70;99.90
30097;DHT22;16915;51.466;3.610;2023-04-04T05:56:32;0.90;99.90
30097;DHT22;16915;51.466;3.610;2023-04-04T05:58:57;1.00;99.90
30097;DHT22;16915;51.466;3.610;2023-04-04T06:01:23;1.10;99.90
30097;DHT22;16915;51.466;3.610;2023-04-04T06:03:50;1.20;99.90
30097;DHT22;16915;51.466;3.610;2023-04-04T06:06:15;1.20;99.90
30097;DHT22;16915;51.466;3.610;2023-04-04T06:08:41;1.30;99.90
30097;DHT22;16915;51.466;3.610;2023-04-04T06:11:06;1.40;99.90
30097;DHT22;16915;51.466;3.610;2023-04-04T06:13:32;1.50;99.90
30097;DHT22;16915;51.466;3.610;2023-04-04T06:15:57;1.60;99.90
30097;DHT22;16915;51.466;3.610;2023-04-04T06:18:23;1.70;99.90
30097;DHT22;16915;51.466;3.610;2023-04-04T06:20:48;1.80;99.90
30097;DHT22;16915;51.466;3.610;2023-04-04T06:23:14;1.80;99.90
30097;DHT22;16915;51.466;3.610;2023-04-04T06:25:40;2.00;99.90
30097;DHT22;16915;51.466;3.610;2023-04-04T06:28:05;2.00;99.90
30097;DHT22;16915;51.466;3.610;2023-04-04T06:30:34;2.20;99.90
30097;DHT22;16915;51.466;3.610;2023-04-04T06:33:02;2.30;99.90
30097;DHT22;16915;51.466;3.610;2023-04-04T06:35:27;2.50;99.90
30097;DHT22;16915;51.466;3.610;2023-04-04T06:37:54;2.60;99.90
30097;DHT22;16915;51.466;3.610;2023-04-04T06:40:20;2.70;99.90
30097;DHT22;16915;51.466;3.610;2023-04-04T06:42:51;2.90;99.90
30097;DHT22;16915;51.466;3.610;2023-04-04T06:45:17;3.00;99.90
30097;DHT22;16915;51.466;3.610;2023-04-04T06:47:43;3.10;99.90
30097;DHT22;16915;51.466;3.610;2023-04-04T06:50:09;3.20;99.90
30097;DHT22;16915;51.466;3.610;2023-04-04T06:52:36;3.30;99.90
30097;DHT22;16915;51.466;3.610;2023-04-04T06:55:02;3.40;99.90
30097;DHT22;16915;51.466;3.610;2023-04-04T06:57:27;3.50;99.90
30097;DHT22;16915;51.466;3.610;2023-04-04T06:59:53;3.50;99.90
30097;DHT22;16915;51.466;3.610;2023-04-04T07:02:18;3.70;99.90
30097;DHT22;16915;51.466;3.610;2023-04-04T07:04:44;3.70;99.90
30097;DHT22;16915;51.466;3.610;2023-04-04T07:07:10;3.90;99.90
30097;DHT22;16915;51.466;3.610;2023-04-04T07:09:36;4.00;99.90
30097;DHT22;16915;51.466;3.610;2023-04-04T07:12:02;4.10;99.90
30097;DHT22;16915;51.466;3.610;2023-04-04T07:14:27;4.20;99.90
30097;DHT22;16915;51.466;3.610;2023-04-04T07:16:53;4.30;99.90
30097;DHT22;16915;51.466;3.610;2023-04-04T07:19:19;4.40;99.90
30097;DHT22;16915;51.466;3.610;2023-04-04T07:21:45;4.50;99.90
30097;DHT22;16915;51.466;3.610;2023-04-04T07:24:10;4.70;99.90
30097;DHT22;16915;51.466;3.610;2023-04-04T07:26:36;4.70;99.90
30097;DHT22;16915;51.466;3.610;2023-04-04T07:29:01;4.80;99.90
30097;DHT22;16915;51.466;3.610;2023-04-04T07:31:27;4.90;99.90
30097;DHT22;16915;51.466;3.610;2023-04-04T07:33:53;5.10;99.90
30097;DHT22;16915;51.466;3.610;2023-04-04T07:36:18;5.20;99.90
30097;DHT22;16915;51.466;3.610;2023-04-04T07:38:44;5.30;99.90
30097;DHT22;16915;51.466;3.610;2023-04-04T07:41:09;5.40;99.90
30097;DHT22;16915;51.466;3.610;2023-04-04T07:43:36;5.50;99.90
30097;DHT22;16915;51.466;3.610;2023-04-04T07:46:02;5.60;99.90
30097;DHT22;16915;51.466;3.610;2023-04-04T07:48:27;5.60;99.90
30097;DHT22;16915;51.466;3.610;2023-04-04T07:50:53;5.80;99.90
30097;DHT22;16915;51.466;3.610;2023-04-04T07:53:18;5.80;99.90
30097;DHT22;16915;51.466;3.610;2023-04-04T07:55:44;5.80;99.90
30097;DHT22;16915;51.466;3.610;2023-04-04T07:58:09;5.90;99.90
30097;DHT22;16915;51.466;3.610;2023-04-04T08:00:35;5.90;99.90
30097;DHT22;16915;51.466;3.610;2023-04-04T08:03:01;6.10;99.90
30097;DHT22;16915;51.466;3.610;2023-04-04T08:05:27;6.20;99.90
30097;DHT22;16915;51.466;3.610;2023-04-04T08:07:53;6.20;99.90
30097;DHT22;16915;51.466;3.610;2023-04-04T08:10:18;6.20;99.90
30097;DHT22;16915;51.466;3.610;2023-04-04T08:12:46;6.30;99.90
30097;DHT22;16915;51.466;3.610;2023-04-04T08:15:12;6.30;99.90
30097;DHT22;16915;51.466;3.610;2023-04-04T08:17:38;6.40;99.90
30097;DHT22;16915;51.466;3.610;2023-04-04T08:20:04;6.50;99.90
30097;DHT22;16915;51.466;3.610;2023-04-04T08:22:30;6.60;99.90
30097;DHT22;16915;51.466;3.610;2023-04-04T08:24:55;6.70;99.90
30097;DHT22;16915;51.466;3.610;2023-04-04T08:27:21;6.80;99.90
30097;DHT22;16915;51.466;3.610;2023-04-04T08:29:47;6.90;99.90
30097;DHT22;16915;51.466;3.610;2023-04-04T08:32:15;7.00;99.90
30097;DHT22;16915;51.466;3.610;2023-04-04T08:34:41;7.10;99.90
30097;DHT22;16915;51.466;3.610;2023-04-04T08:37:07;7.10;99.90
30097;DHT22;16915;51.466;3.610;2023-04-04T08:39:33;7.10;99.90
30097;DHT22;16915;51.466;3.610;2023-04-04T08:42:03;7.10;99.90
30097;DHT22;16915;51.466;3.610;2023-04-04T08:44:31;7.20;99.90
30097;DHT22;16915;51.466;3.610;2023-04-04T08:47:02;7.30;99.90
30097;DHT22;16915;51.466;3.610;2023-04-04T08:49:32;7.50;99.90
30097;DHT22;16915;51.466;3.610;2023-04-04T08:52:00;7.60;99.90
30097;DHT22;16915;51.466;3.610;2023-04-04T08:54:29;7.70;99.90
30097;DHT22;16915;51.466;3.610;2023-04-04T08:56:55;7.80;99.90
30097;DHT22;16915;51.466;3.610;2023-04-04T08:59:21;8.00;99.90
30097;DHT22;16915;51.466;3.610;2023-04-04T09:01:47;8.10;99.90
30097;DHT22;16915;51.466;3.610;2023-04-04T09:04:14;8.20;99.90
30097;DHT22;16915;51.466;3.610;2023-04-04T09:06:41;8.10;99.90
30097;DHT22;16915;51.466;3.610;2023-04-04T09:09:07;8.10;99.90
30097;DHT22;16915;51.466;3.610;2023-04-04T09:11:34;8.10;99.90
30097;DHT22;16915;51.466;3.610;2023-04-04T09:14:00;8.10;99.90
30097;DHT22;16915;51.466;3.610;2023-04-04T09:16:28;8.10;99.90
30097;DHT22;16915;51.466;3.610;2023-04-04T09:18:54;8.20;99.90
30097;DHT22;16915;51.466;3.610;2023-04-04T09:21:20;8.10;99.90
30097;DHT22;16915;51.466;3.610;2023-04-04T09:23:45;8.10;99.90
30097;DHT22;16915;51.466;3.610;2023-04-04T09:26:11;7.90;99.90
30097;DHT22;16915;51.466;3.610;2023-04-04T09:28:37;7.90;99.90
30097;DHT22;16915;51.466;3.610;2023-04-04T09:31:06;8.10;99.90
30097;DHT22;16915;51.466;3.610;2023-04-04T09:33:33;8.30;99.90
30097;DHT22;16915;51.466;3.610;2023-04-04T09:36:08;8.30;99.90
30097;DHT22;16915;51.466;3.610;2023-04-04T09:38:36;8.40;99.90
30097;DHT22;16915;51.466;3.610;2023-04-04T09:41:06;8.50;99.90
30097;DHT22;16915;51.466;3.610;2023-04-04T09:43:32;8.50;99.90
30097;DHT22;16915;51.466;3.610;2023-04-04T09:45:59;8.60;99.90
30097;DHT22;16915;51.466;3.610;2023-04-04T09:48:34;8.70;99.90
30097;DHT22;16915;51.466;3.610;2023-04-04T09:51:05;8.70;99.90
30097;DHT22;16915;51.466;3.610;2023-04-04T09:53:34;8.70;99.90
30097;DHT22;16915;51.466;3.610;2023-04-04T09:56:01;8.70;99.90
30097;DHT22;16915;51.466;3.610;2023-04-04T09:58:29;8.60;99.90
30097;DHT22;16915;51.466;3.610;2023-04-04T10:01:02;8.70;99.90
30097;DHT22;16915;51.466;3.610;2023-04-04T10:03:29;8.90;99.90
30097;DHT22;16915;51.466;3.610;2023-04-04T10:06:05;9.30;99.90
30097;DHT22;16915;51.466;3.610;2023-04-04T10:08:32;9.40;99.90
30097;DHT22;16915;51.466;3.610;2023-04-04T10:11:02;9.40;99.90
30097;DHT22;16915;51.466;3.610;2023-04-04T10:13:30;9.30;99.90
30097;DHT22;16915;51.466;3.610;2023-04-04T10:15:58;9.50;99.90
30097;DHT22;16915;51.466;3.610;2023-04-04T10:18:28;10.00;99.90
30097;DHT22;16915;51.466;3.610;2023-04-04T10:20:56;10.20;99.90
30097;DHT22;16915;51.466;3.610;2023-04-04T10:23:23;10.30;99.90
30097;DHT22;16915;51.466;3.610;2023-04-04T10:25:51;10.70;99.90
30097;DHT22;16915;51.466;3.610;2023-04-04T10:28:17;10.90;99.90
30097;DHT22;16915;51.466;3.610;2023-04-04T10:30:54;11.30;99.70
30097;DHT22;16915;51.466;3.610;2023-04-04T10:33:31;11.40;99.90
30097;DHT22;16915;51.466;3.610;2023-04-04T10:36:02;11.50;99.80
30097;DHT22;16915;51.466;3.610;2023-04-04T10:38:31;12.10;99.90
30097;DHT22;16915;51.466;3.610;2023-04-04T10:40:59;12.70;98.90
30097;DHT22;16915;51.466;3.610;2023-04-04T10:43:30;13.10;98.80
30097;DHT22;16915;51.466;3.610;2023-04-04T10:46:00;13.50;98.10
30097;DHT22;16915;51.466;3.610;2023-04-04T10:48:30;13.30;98.30
30097;DHT22;16915;51.466;3.610;2023-04-04T10:50:57;13.20;97.60
30097;DHT22;16915;51.466;3.610;2023-04-04T10:53:24;13.10;98.10
30097;DHT22;16915;51.466;3.610;2023-04-04T10:55:50;13.40;97.80
30097;DHT22;16915;51.466;3.610;2023-04-04T10:58:16;13.80;97.20
30097;DHT22;16915;51.466;3.610;2023-04-04T11:00:52;14.10;96.10
30097;DHT22;16915;51.466;3.610;2023-04-04T11:03:19;14.20;96.70
30097;DHT22;16915;51.466;3.610;2023-04-04T11:05:45;14.40;96.40
30097;DHT22;16915;51.466;3.610;2023-04-04T11:08:26;14.50;95.20
30097;DHT22;16915;51.466;3.610;2023-04-04T11:10:54;14.20;95.50
30097;DHT22;16915;51.466;3.610;2023-04-04T11:13:31;14.40;95.40
30097;DHT22;16915;51.466;3.610;2023-04-04T11:16:04;14.30;94.50
30097;DHT22;16915;51.466;3.610;2023-04-04T11:21:01;13.90;95.50
30097;DHT22;16915;51.466;3.610;2023-04-04T11:23:26;13.80;95.10
30097;DHT22;16915;51.466;3.610;2023-04-04T11:26:06;13.90;95.20
30097;DHT22;16915;51.466;3.610;2023-04-04T11:33:59;14.80;93.20
30097;DHT22;16915;51.466;3.610;2023-04-04T11:39:12;14.30;93.40
30097;DHT22;16915;51.466;3.610;2023-04-04T11:41:55;14.50;92.90
30097;DHT22;16915;51.466;3.610;2023-04-04T11:44:26;15.30;92.00
30097;DHT22;16915;51.466;3.610;2023-04-04T11:49:40;15.70;92.50
30097;DHT22;16915;51.466;3.610;2023-04-04T11:52:12;15.90;91.70
30097;DHT22;16915;51.466;3.610;2023-04-04T11:54:39;16.60;91.50
30097;DHT22;16915;51.466;3.610;2023-04-04T11:57:06;17.30;91.40
30097;DHT22;16915;51.466;3.610;2023-04-04T11:59:31;17.90;88.60
30097;DHT22;16915;51.466;3.610;2023-04-04T12:01:58;18.10;87.00
30097;DHT22;16915;51.466;3.610;2023-04-04T12:04:25;17.20;85.90
30097;DHT22;16915;51.466;3.610;2023-04-04T12:06:52;16.70;86.10
30097;DHT22;16915;51.466;3.610;2023-04-04T12:09:19;16.30;87.70
30097;DHT22;16915;51.466;3.610;2023-04-04T12:11:48;16.70;84.80
30097;DHT22;16915;51.466;3.610;2023-04-04T12:14:19;16.50;86.40
30097;DHT22;16915;51.466;3.610;2023-04-04T12:16:47;16.70;87.10
30097;DHT22;16915;51.466;3.610;2023-04-04T12:19:14;17.10;90.20
30097;DHT22;16915;51.466;3.610;2023-04-04T12:21:40;18.20;85.00
30097;DHT22;16915;51.466;3.610;2023-04-04T12:24:09;18.20;83.70
30097;DHT22;16915;51.466;3.610;2023-04-04T12:26:40;18.60;83.90
30097;DHT22;16915;51.466;3.610;2023-04-04T12:29:07;19.20;81.80
30097;DHT22;16915;51.466;3.610;2023-04-04T12:31:35;19.20;84.00
30097;DHT22;16915;51.466;3.610;2023-04-04T12:34:01;19.20;81.30
30097;DHT22;16915;51.466;3.610;2023-04-04T12:36:30;18.40;81.40
30097;DHT22;16915;51.466;3.610;2023-04-04T12:39:01;18.50;83.10
30097;DHT22;16915;51.466;3.610;2023-04-04T12:41:27;18.80;80.90
30097;DHT22;16915;51.466;3.610;2023-04-04T12:44:00;19.10;79.40
30097;DHT22;16915;51.466;3.610;2023-04-04T12:46:27;19.30;79.30
30097;DHT22;16915;51.466;3.610;2023-04-04T12:48:53;19.60;78.30
30097;DHT22;16915;51.466;3.610;2023-04-04T12:51:19;20.20;75.50
30097;DHT22;16915;51.466;3.610;2023-04-04T12:53:52;19.90;75.60
30097;DHT22;16915;51.466;3.610;2023-04-04T12:56:18;20.30;76.10
30097;DHT22;16915;51.466;3.610;2023-04-04T12:58:48;20.60;73.40
30097;DHT22;16915;51.466;3.610;2023-04-04T13:01:14;20.40;74.00
30097;DHT22;16915;51.466;3.610;2023-04-04T13:03:41;19.90;72.50
30097;DHT22;16915;51.466;3.610;2023-04-04T13:06:15;19.50;75.10
30097;DHT22;16915;51.466;3.610;2023-04-04T13:08:53;19.50;72.70
30097;DHT22;16915;51.466;3.610;2023-04-04T13:11:19;19.90;74.40
30097;DHT22;16915;51.466;3.610;2023-04-04T13:13:46;20.00;76.50
30097;DHT22;16915;51.466;3.610;2023-04-04T13:16:27;20.50;73.10
30097;DHT22;16915;51.466;3.610;2023-04-04T13:18:53;20.60;72.30
30097;DHT22;16915;51.466;3.610;2023-04-04T13:21:19;20.80;74.00
30097;DHT22;16915;51.466;3.610;2023-04-04T13:23:45;20.70;74.60
30097;DHT22;16915;51.466;3.610;2023-04-04T13:26:10;21.30;75.00
30097;DHT22;16915;51.466;3.610;2023-04-04T13:28:37;21.50;71.20
30097;DHT22;16915;51.466;3.610;2023-04-04T13:31:04;21.50;71.20
30097;DHT22;16915;51.466;3.610;2023-04-04T13:33:31;21.30;71.90
30097;DHT22;16915;51.466;3.610;2023-04-04T13:35:57;21.10;71.10
30097;DHT22;16915;51.466;3.610;2023-04-04T13:38:23;20.50;70.70
30097;DHT22;16915;51.466;3.610;2023-04-04T13:40:48;20.10;72.50
30097;DHT22;16915;51.466;3.610;2023-04-04T13:43:14;20.30;72.20
30097;DHT22;16915;51.466;3.610;2023-04-04T13:45:41;20.70;72.10
30097;DHT22;16915;51.466;3.610;2023-04-04T13:48:08;20.80;71.50
30097;DHT22;16915;51.466;3.610;2023-04-04T13:50:36;21.00;70.40
30097;DHT22;16915;51.466;3.610;2023-04-04T13:53:01;21.40;69.90
30097;DHT22;16915;51.466;3.610;2023-04-04T13:55:27;21.70;72.90
30097;DHT22;16915;51.466;3.610;2023-04-04T13:57:53;21.90;68.50
30097;DHT22;16915;51.466;3.610;2023-04-04T14:00:19;22.00;71.00
30097;DHT22;16915;51.466;3.610;2023-04-04T14:02:45;22.30;68.30
30097;DHT22;16915;51.466;3.610;2023-04-04T14:05:11;22.00;67.50
30097;DHT22;16915;51.466;3.610;2023-04-04T14:07:36;22.10;69.60
30097;DHT22;16915;51.466;3.610;2023-04-04T14:10:03;22.10;71.00
30097;DHT22;16915;51.466;3.610;2023-04-04T14:12:29;21.80;66.80
30097;DHT22;16915;51.466;3.610;2023-04-04T14:14:55;21.70;67.80
30097;DHT22;16915;51.466;3.610;2023-04-04T14:17:21;21.00;67.80
30097;DHT22;16915;51.466;3.610;2023-04-04T14:19:46;20.50;69.50
30097;DHT22;16915;51.466;3.610;2023-04-04T14:22:12;20.60;68.50
30097;DHT22;16915;51.466;3.610;2023-04-04T14:24:37;20.50;67.70
30097;DHT22;16915;51.466;3.610;2023-04-04T14:27:03;20.80;68.50
30097;DHT22;16915;51.466;3.610;2023-04-04T14:29:28;21.30;69.30
30097;DHT22;16915;51.466;3.610;2023-04-04T14:31:54;21.10;68.00
30097;DHT22;16915;51.466;3.610;2023-04-04T14:34:23;21.40;68.20
30097;DHT22;16915;51.466;3.610;2023-04-04T14:36:50;21.60;67.30
30097;DHT22;16915;51.466;3.610;2023-04-04T14:39:16;22.00;67.40
30097;DHT22;16915;51.466;3.610;2023-04-04T14:41:42;22.30;66.50
30097;DHT22;16915;51.466;3.610;2023-04-04T14:44:07;22.10;65.20
30097;DHT22;16915;51.466;3.610;2023-04-04T14:46:34;21.90;64.50
30097;DHT22;16915;51.466;3.610;2023-04-04T14:49:00;22.10;66.40
30097;DHT22;16915;51.466;3.610;2023-04-04T14:51:27;22.00;65.00
30097;DHT22;16915;51.466;3.610;2023-04-04T14:53:52;21.30;65.30
30097;DHT22;16915;51.466;3.610;2023-04-04T14:56:18;21.80;66.30
30097;DHT22;16915;51.466;3.610;2023-04-04T14:58:44;22.50;65.00
30097;DHT22;16915;51.466;3.610;2023-04-04T15:01:10;22.60;64.70
30097;DHT22;16915;51.466;3.610;2023-04-04T15:03:36;22.00;64.40
30097;DHT22;16915;51.466;3.610;2023-04-04T15:06:02;21.10;66.10
30097;DHT22;16915;51.466;3.610;2023-04-04T15:08:28;21.30;65.00
30097;DHT22;16915;51.466;3.610;2023-04-04T15:10:54;21.10;65.50
30097;DHT22;16915;51.466;3.610;2023-04-04T15:13:20;20.30;66.10
30097;DHT22;16915;51.466;3.610;2023-04-04T15:15:46;19.20;65.90
30097;DHT22;16915;51.466;3.610;2023-04-04T15:18:11;17.70;69.00
30097;DHT22;16915;51.466;3.610;2023-04-04T15:20:37;16.40;71.70
30097;DHT22;16915;51.466;3.610;2023-04-04T15:23:05;15.00;72.50
30097;DHT22;16915;51.466;3.610;2023-04-04T15:25:32;14.00;76.00
30097;DHT22;16915;51.466;3.610;2023-04-04T15:27:58;13.40;77.90
30097;DHT22;16915;51.466;3.610;2023-04-04T15:30:25;12.90;78.60
30097;DHT22;16915;51.466;3.610;2023-04-04T15:32:51;12.40;80.00
30097;DHT22;16915;51.466;3.610;2023-04-04T15:35:19;12.10;82.40
30097;DHT22;16915;51.466;3.610;2023-04-04T15:37:45;11.90;84.70
30097;DHT22;16915;51.466;3.610;2023-04-04T15:40:13;11.70;87.30
30097;DHT22;16915;51.466;3.610;2023-04-04T15:42:40;11.60;85.60
30097;DHT22;16915;51.466;3.610;2023-04-04T15:45:06;11.40;87.50
30097;DHT22;16915;51.466;3.610;2023-04-04T15:47:32;11.30;86.40
30097;DHT22;16915;51.466;3.610;2023-04-04T15:49:58;11.20;87.70
30097;DHT22;16915;51.466;3.610;2023-04-04T15:52:23;11.10;89.20